createdAt,value
2018-04-10T00:01:12.016Z,87.50
2018-04-10T00:03:45.599Z,87.60
2018-04-10T00:06:19.128Z,86.70
2018-04-10T00:08:52.661Z,87.80
2018-04-10T00:11:26.998Z,89.90
2018-04-10T00:14:00.747Z,89.40
2018-04-10T00:16:34.304Z,89.30
2018-04-10T00:19:08.076Z,89.30
2018-04-10T00:21:42.339Z,88.70
2018-04-10T00:24:16.051Z,88.60
2018-04-10T00:26:49.637Z,90.00
2018-04-10T00:29:23.185Z,88.50
2018-04-10T00:31:56.746Z,90.00
2018-04-10T00:34:30.329Z,89.80
2018-04-10T00:37:04.645Z,90.50
2018-04-10T00:39:38.315Z,90.00
2018-04-10T00:42:11.940Z,90.60
2018-04-10T00:44:45.567Z,91.20
2018-04-10T00:47:19.102Z,92.00
2018-04-10T00:49:52.633Z,92.40
2018-04-10T00:52:26.319Z,91.90
2018-04-10T00:55:00.002Z,92.20
2018-04-10T00:57:33.570Z,92.30
2018-04-10T01:00:07.159Z,92.10
2018-04-10T01:02:40.754Z,92.40
2018-04-10T01:05:14.340Z,92.20
2018-04-10T01:07:47.962Z,92.30
2018-04-10T01:10:21.556Z,91.50
2018-04-10T01:12:55.099Z,91.70
2018-04-10T01:15:28.590Z,92.10
2018-04-10T01:18:02.141Z,91.40
2018-04-10T01:20:35.773Z,91.40
2018-04-10T01:23:09.367Z,91.80
2018-04-10T01:25:42.845Z,92.10
2018-04-10T01:28:16.389Z,92.20
2018-04-10T01:30:49.968Z,92.40
2018-04-10T01:33:23.457Z,92.70
2018-04-10T01:35:57.056Z,92.90
2018-04-10T01:38:30.578Z,93.30
2018-04-10T01:41:04.084Z,93.90
2018-04-10T01:43:37.899Z,94.20
2018-04-10T01:46:11.461Z,94.10
2018-04-10T01:48:45.059Z,94.00
2018-04-10T01:51:18.741Z,94.30
2018-04-10T01:53:52.371Z,94.30
2018-04-10T01:56:25.963Z,94.50
2018-04-10T01:58:59.477Z,94.00
2018-04-10T02:01:33.113Z,94.10
2018-04-10T02:04:06.670Z,93.30
2018-04-10T02:06:40.210Z,94.00
2018-04-10T02:09:14.573Z,95.10
2018-04-10T02:11:48.239Z,95.10
2018-04-10T02:14:21.776Z,95.30
2018-04-10T02:16:55.399Z,95.30
2018-04-10T02:19:28.993Z,95.20
2018-04-10T02:22:02.597Z,95.40
2018-04-10T02:24:36.202Z,95.90
2018-04-10T02:27:09.785Z,95.50
2018-04-10T02:29:43.404Z,95.70
2018-04-10T02:32:17.011Z,95.80
2018-04-10T02:34:50.605Z,95.80
2018-04-10T02:37:24.194Z,95.70
2018-04-10T02:39:57.815Z,95.90
2018-04-10T02:42:31.535Z,95.80
2018-04-10T02:45:05.089Z,95.80
2018-04-10T02:47:38.712Z,96.00
2018-04-10T02:50:12.296Z,95.90
2018-04-10T02:52:45.918Z,95.70
2018-04-10T02:55:19.502Z,95.30
2018-04-10T02:57:53.042Z,95.50
2018-04-10T03:00:26.607Z,95.60
2018-04-10T03:03:00.206Z,95.30
2018-04-10T03:05:33.696Z,95.30
2018-04-10T03:08:07.287Z,95.90
2018-04-10T03:10:40.906Z,96.30
2018-04-10T03:13:15.181Z,95.60
2018-04-10T03:15:48.857Z,95.60
2018-04-10T03:18:23.456Z,94.70
2018-04-10T03:20:57.170Z,94.60
2018-04-10T03:23:30.767Z,94.60
2018-04-10T03:26:04.343Z,95.30
2018-04-10T03:28:37.937Z,95.40
2018-04-10T03:31:11.535Z,95.80
2018-04-10T03:33:45.179Z,96.20
2018-04-10T03:36:18.666Z,96.00
2018-04-10T03:38:52.240Z,96.00
2018-04-10T03:41:25.849Z,95.90
2018-04-10T03:43:59.351Z,95.90
2018-04-10T03:46:33.666Z,96.10
2018-04-10T03:49:07.171Z,96.20
2018-04-10T03:51:40.773Z,96.60
2018-04-10T03:54:14.311Z,97.00
2018-04-10T03:56:47.849Z,96.60
2018-04-10T03:59:21.437Z,96.70
2018-04-10T04:01:55.055Z,96.90
2018-04-10T04:04:28.565Z,97.10
2018-04-10T04:07:02.891Z,97.20
2018-04-10T04:09:36.612Z,97.20
2018-04-10T04:12:10.181Z,96.90
2018-04-10T04:14:43.802Z,97.10
2018-04-10T04:17:29.339Z,97.20
2018-04-10T04:20:14.855Z,97.10
2018-04-10T04:22:48.464Z,97.00
2018-04-10T04:25:21.970Z,96.80
2018-04-10T04:27:55.486Z,96.90
2018-04-10T04:30:29.041Z,96.60
2018-04-10T04:33:02.590Z,96.10
2018-04-10T04:35:36.100Z,95.40
2018-04-10T04:38:09.659Z,96.10
2018-04-10T04:40:43.175Z,96.60
2018-04-10T04:43:16.871Z,96.00
2018-04-10T04:45:50.430Z,96.20
2018-04-10T04:48:24.047Z,96.60
2018-04-10T04:50:57.637Z,96.60
2018-04-10T04:53:31.259Z,97.00
2018-04-10T04:56:04.860Z,97.00
2018-04-10T04:58:38.369Z,97.10
2018-04-10T05:01:11.921Z,97.30
2018-04-10T05:03:45.490Z,97.10
2018-04-10T05:06:19.021Z,97.20
2018-04-10T05:08:53.372Z,96.70
2018-04-10T05:11:27.792Z,96.60
2018-04-10T05:14:01.520Z,96.60
2018-04-10T05:16:35.083Z,96.80
2018-04-10T05:19:09.482Z,96.60
2018-04-10T05:21:43.118Z,96.60
2018-04-10T05:24:16.703Z,96.90
2018-04-10T05:26:50.250Z,96.90
2018-04-10T05:29:24.723Z,96.80
2018-04-10T05:31:58.461Z,96.80
2018-04-10T05:34:31.950Z,97.20
2018-04-10T05:37:05.471Z,97.20
2018-04-10T05:39:39.049Z,97.00
2018-04-10T05:42:12.911Z,97.00
2018-04-10T05:44:46.515Z,97.20
2018-04-10T05:47:20.183Z,96.90
2018-04-10T05:49:53.712Z,96.70
2018-04-10T05:52:27.236Z,96.30
2018-04-10T05:55:00.807Z,94.90
2018-04-10T05:57:34.469Z,94.70
2018-04-10T06:00:08.141Z,94.20
2018-04-10T06:02:41.753Z,93.40
2018-04-10T06:05:15.272Z,92.70
2018-04-10T06:07:48.875Z,92.10
2018-04-10T06:10:23.179Z,91.40
2018-04-10T06:12:56.995Z,91.40
2018-04-10T06:15:30.679Z,91.80
2018-04-10T06:18:04.262Z,94.60
2018-04-10T06:20:37.791Z,94.30
2018-04-10T06:23:11.509Z,93.90
2018-04-10T06:25:45.119Z,93.60
2018-04-10T06:28:19.452Z,92.70
2018-04-10T06:30:53.622Z,92.60
2018-04-10T06:33:27.206Z,93.00
2018-04-10T06:36:00.786Z,92.70
2018-04-10T06:38:34.331Z,92.10
2018-04-10T06:41:08.058Z,89.40
2018-04-10T06:43:41.646Z,87.00
2018-04-10T06:46:15.154Z,85.10
2018-04-10T06:48:48.737Z,81.30
2018-04-10T06:51:22.319Z,81.20
2018-04-10T06:53:55.921Z,80.20
2018-04-10T06:56:30.238Z,74.10
2018-04-10T06:59:03.976Z,73.90
2018-04-10T07:01:37.529Z,73.00
2018-04-10T07:04:11.049Z,71.90
2018-04-10T07:06:44.614Z,68.90
2018-04-10T07:09:18.951Z,67.20
2018-04-10T07:11:52.667Z,66.10
2018-04-10T07:14:27.075Z,63.60
2018-04-10T07:17:00.828Z,63.50
2018-04-10T07:19:34.330Z,60.40
2018-04-10T07:22:07.900Z,57.90
2018-04-10T07:24:41.459Z,57.30
2018-04-10T07:27:14.994Z,57.50
2018-04-10T07:29:48.555Z,56.90
2018-04-10T07:32:22.082Z,56.30
2018-04-10T07:34:55.682Z,54.30
2018-04-10T07:37:29.240Z,54.80
2018-04-10T07:40:02.813Z,54.00
2018-04-10T07:42:36.383Z,54.00
2018-04-10T07:45:09.898Z,55.10
2018-04-10T07:47:44.298Z,55.60
2018-04-10T07:50:17.840Z,55.60
2018-04-10T07:52:51.421Z,55.60
2018-04-10T07:55:24.995Z,55.20
2018-04-10T07:57:58.536Z,55.20
2018-04-10T08:00:32.122Z,53.10
2018-04-10T08:03:05.692Z,53.30
2018-04-10T08:05:39.245Z,52.90
2018-04-10T08:08:12.843Z,53.10
2018-04-10T08:10:46.396Z,52.80
2018-04-10T08:13:19.987Z,51.70
2018-04-10T08:15:53.606Z,52.00
2018-04-10T08:18:27.207Z,52.30
2018-04-10T08:21:00.743Z,52.40
2018-04-10T08:23:35.010Z,51.20
2018-04-10T08:26:08.738Z,51.10
2018-04-10T08:28:42.305Z,51.70
2018-04-10T08:31:15.805Z,51.10
2018-04-10T08:33:49.394Z,51.80
2018-04-10T08:36:22.937Z,52.00
2018-04-10T08:38:56.495Z,49.80
2018-04-10T08:41:30.829Z,49.50
2018-04-10T08:44:05.150Z,49.60
2018-04-10T08:46:38.907Z,49.50
2018-04-10T08:49:12.545Z,47.30
2018-04-10T08:51:46.176Z,46.70
2018-04-10T08:54:19.757Z,45.20
2018-04-10T08:56:53.346Z,46.50
2018-04-10T08:59:27.000Z,46.40
2018-04-10T09:02:00.752Z,46.60
2018-04-10T09:04:34.274Z,46.40
2018-04-10T09:07:07.865Z,46.70
2018-04-10T09:09:41.410Z,46.20
2018-04-10T09:12:14.933Z,46.00
2018-04-10T09:14:49.279Z,44.60
2018-04-10T09:17:22.974Z,44.60
2018-04-10T09:19:56.561Z,44.70
2018-04-10T09:22:30.118Z,46.00
2018-04-10T09:25:03.787Z,46.20
2018-04-10T09:27:37.376Z,44.80
2018-04-10T09:30:10.908Z,43.50
2018-04-10T09:32:44.578Z,44.10
2018-04-10T09:35:18.169Z,43.10
2018-04-10T09:37:51.715Z,44.70
2018-04-10T09:40:25.282Z,43.80
2018-04-10T09:42:58.822Z,43.70
2018-04-10T09:45:32.617Z,44.30
2018-04-10T09:48:06.350Z,43.20
2018-04-10T09:50:40.670Z,42.30
2018-04-10T09:53:15.140Z,41.40
2018-04-10T09:55:48.669Z,41.40
2018-04-10T09:58:22.235Z,41.90
2018-04-10T10:00:55.839Z,42.30
2018-04-10T10:03:29.369Z,40.40
2018-04-10T10:06:03.114Z,41.50
2018-04-10T10:08:36.722Z,39.60
2018-04-10T10:11:11.071Z,40.70
2018-04-10T10:13:44.587Z,40.70
2018-04-10T10:16:18.159Z,40.90
2018-04-10T10:18:51.754Z,41.20
2018-04-10T10:21:25.377Z,40.60
2018-04-10T10:23:58.974Z,40.10
2018-04-10T10:26:32.546Z,40.60
2018-04-10T10:29:06.059Z,40.10
2018-04-10T10:31:39.662Z,41.20
2018-04-10T10:34:13.264Z,40.00
2018-04-10T10:36:46.868Z,40.60
2018-04-10T10:39:20.454Z,40.50
2018-04-10T10:41:53.991Z,40.30
2018-04-10T10:44:27.900Z,39.00
2018-04-10T10:47:01.548Z,38.90
2018-04-10T10:49:35.051Z,38.40
2018-04-10T10:52:08.675Z,37.20
2018-04-10T10:54:42.255Z,37.00
2018-04-10T10:57:15.800Z,36.50
2018-04-10T10:59:49.357Z,37.30
2018-04-10T11:02:22.965Z,35.90
2018-04-10T11:04:57.292Z,37.40
2018-04-10T11:07:30.898Z,37.30
2018-04-10T11:10:04.499Z,35.60
2018-04-10T11:12:38.076Z,35.40
2018-04-10T11:15:11.599Z,35.40
2018-04-10T11:17:45.188Z,35.10
2018-04-10T11:20:18.778Z,36.50
2018-04-10T11:22:52.308Z,33.50
2018-04-10T11:25:25.999Z,35.00
2018-04-10T11:27:59.592Z,34.50
2018-04-10T11:30:33.913Z,34.20
2018-04-10T11:33:07.639Z,34.20
2018-04-10T11:35:41.212Z,33.70
2018-04-10T11:38:14.794Z,33.60
2018-04-10T11:40:48.339Z,33.90
2018-04-10T11:43:21.906Z,34.30
2018-04-10T11:45:55.499Z,32.60
2018-04-10T11:48:29.219Z,31.50
2018-04-10T11:51:02.827Z,32.80
2018-04-10T11:53:36.437Z,32.50
2018-04-10T11:56:11.048Z,32.60
2018-04-10T11:58:44.763Z,32.50
2018-04-10T12:01:19.082Z,32.40
2018-04-10T12:03:52.701Z,32.40
2018-04-10T12:06:26.374Z,32.90
2018-04-10T12:08:59.935Z,33.40
2018-04-10T12:11:33.598Z,31.10
2018-04-10T12:14:07.200Z,32.40
2018-04-10T12:16:40.759Z,33.10
2018-04-10T12:19:15.035Z,34.20
2018-04-10T12:21:48.586Z,34.20
2018-04-10T12:24:22.226Z,32.70
2018-04-10T12:26:55.782Z,32.40
2018-04-10T12:29:29.295Z,32.40
2018-04-10T12:32:02.866Z,32.00
2018-04-10T12:34:37.186Z,34.60
2018-04-10T12:37:10.783Z,34.30
2018-04-10T12:39:44.429Z,32.30
2018-04-10T12:42:18.068Z,31.20
2018-04-10T12:44:51.671Z,31.80
2018-04-10T12:47:25.330Z,30.90
2018-04-10T12:49:58.931Z,30.40
2018-04-10T12:52:32.423Z,33.10
2018-04-10T12:55:06.730Z,34.60
2018-04-10T12:57:40.410Z,34.50
2018-04-10T13:00:14.047Z,34.70
2018-04-10T13:02:47.772Z,35.40
2018-04-10T13:05:21.321Z,35.90
2018-04-10T13:07:54.923Z,35.70
2018-04-10T13:10:28.508Z,35.90
2018-04-10T13:13:02.860Z,35.50
2018-04-10T13:15:36.570Z,35.50
2018-04-10T13:18:10.144Z,36.10
2018-04-10T13:20:43.666Z,35.50
2018-04-10T13:23:17.230Z,35.80
2018-04-10T13:25:50.838Z,35.50
2018-04-10T13:28:24.439Z,35.80
2018-04-10T13:30:58.051Z,35.80
2018-04-10T13:33:31.794Z,35.50
2018-04-10T13:36:05.339Z,36.10
2018-04-10T13:38:38.841Z,35.90
2018-04-10T13:41:12.379Z,35.80
2018-04-10T13:43:46.108Z,35.70
2018-04-10T13:46:19.641Z,34.80
2018-04-10T13:48:53.341Z,35.20
2018-04-10T13:51:27.781Z,34.80
2018-04-10T13:54:01.447Z,34.80
2018-04-10T13:56:35.067Z,35.50
2018-04-10T13:59:09.305Z,34.80
2018-04-10T14:01:42.816Z,34.80
2018-04-10T14:04:17.374Z,35.10
2018-04-10T14:06:51.843Z,34.00
2018-04-10T14:09:25.438Z,33.90
2018-04-10T14:11:58.959Z,34.20
2018-04-10T14:14:33.263Z,33.70
2018-04-10T14:17:06.795Z,33.60
2018-04-10T14:19:40.506Z,33.10
2018-04-10T14:22:14.838Z,33.50
2018-04-10T14:24:48.391Z,33.50
2018-04-10T14:27:22.697Z,35.90
2018-04-10T14:29:56.405Z,35.90
2018-04-10T14:32:29.996Z,36.30
2018-04-10T14:35:03.476Z,36.30
2018-04-10T14:37:37.819Z,36.90
2018-04-10T14:40:11.323Z,36.90
2018-04-10T14:42:44.912Z,37.00
2018-04-10T14:45:19.189Z,36.30
2018-04-10T14:47:52.833Z,36.20
2018-04-10T14:50:26.444Z,38.50
2018-04-10T14:53:00.040Z,39.40
2018-04-10T14:55:33.623Z,39.50
2018-04-10T14:58:08.146Z,39.60
2018-04-10T15:00:41.770Z,39.60
2018-04-10T15:03:15.338Z,39.50
2018-04-10T15:05:48.927Z,39.50
2018-04-10T15:08:22.468Z,39.20
2018-04-10T15:10:56.050Z,39.90
2018-04-10T15:13:30.145Z,39.90
2018-04-10T15:16:04.504Z,40.10
2018-04-10T15:18:38.102Z,40.10
2018-04-10T15:21:12.420Z,40.30
2018-04-10T15:23:46.112Z,40.30
2018-04-10T15:26:19.664Z,40.90
2018-04-10T15:28:53.198Z,40.90
2018-04-10T15:31:27.527Z,41.60
2018-04-10T15:34:01.152Z,41.60
2018-04-10T15:36:34.705Z,41.10
2018-04-10T15:39:08.311Z,41.70
2018-04-10T15:41:41.938Z,41.30
2018-04-10T15:44:15.465Z,41.60
2018-04-10T15:46:49.015Z,42.30
2018-04-10T15:49:22.735Z,42.10
2018-04-10T15:51:56.275Z,42.00
2018-04-10T15:54:29.810Z,42.20
2018-04-10T15:57:03.332Z,42.20
2018-04-10T15:59:36.922Z,41.80
2018-04-10T16:02:10.501Z,42.00
2018-04-10T16:04:44.098Z,42.00
2018-04-10T16:07:17.781Z,42.60
2018-04-10T16:09:51.320Z,42.70
2018-04-10T16:12:24.860Z,43.30
2018-04-10T16:14:58.445Z,43.10
2018-04-10T16:17:31.996Z,43.30
2018-04-10T16:20:05.509Z,43.40
2018-04-10T16:22:39.132Z,43.50
2018-04-10T16:25:12.663Z,43.50
2018-04-10T16:27:46.362Z,43.50
2018-04-10T16:30:19.921Z,43.50
2018-04-10T16:32:53.445Z,43.10
2018-04-10T16:35:26.966Z,43.00
2018-04-10T16:38:00.502Z,42.80
2018-04-10T16:40:34.848Z,43.10
2018-04-10T16:43:08.588Z,43.10
2018-04-10T16:45:42.883Z,43.30
2018-04-10T16:48:16.558Z,43.20
2018-04-10T16:50:50.883Z,42.90
2018-04-10T16:53:24.634Z,42.90
2018-04-10T16:55:58.166Z,42.60
2018-04-10T16:58:31.802Z,42.10
2018-04-10T17:01:05.375Z,41.60
2018-04-10T17:03:38.906Z,41.90
2018-04-10T17:06:12.494Z,41.00
2018-04-10T17:08:46.087Z,41.20
2018-04-10T17:11:19.680Z,40.30
2018-04-10T17:13:54.217Z,39.60
2018-04-10T17:16:27.823Z,39.50
2018-04-10T17:19:01.358Z,39.90
2018-04-10T17:21:35.212Z,40.80
2018-04-10T17:24:09.529Z,42.20
2018-04-10T17:26:43.203Z,41.70
2018-04-10T17:29:16.748Z,41.60
2018-04-10T17:31:50.306Z,42.10
2018-04-10T17:34:23.944Z,41.60
2018-04-10T17:36:58.312Z,41.90
2018-04-10T17:39:31.882Z,41.90
2018-04-10T17:42:05.630Z,41.40
2018-04-10T17:44:39.241Z,40.10
2018-04-10T17:47:12.764Z,40.60
2018-04-10T17:49:46.291Z,41.20
2018-04-10T17:52:19.866Z,40.90
2018-04-10T17:54:53.459Z,41.20
2018-04-10T17:57:27.064Z,41.80
2018-04-10T18:00:00.641Z,38.70
2018-04-10T18:02:34.202Z,37.10
2018-04-10T18:05:07.764Z,37.40
2018-04-10T18:07:42.065Z,37.00
2018-04-10T18:10:16.382Z,38.30
2018-04-10T18:12:50.069Z,37.80
2018-04-10T18:15:23.610Z,38.10
2018-04-10T18:17:57.199Z,38.30
2018-04-10T18:20:30.811Z,38.80
2018-04-10T18:23:05.279Z,38.70
2018-04-10T18:25:38.830Z,38.70
2018-04-10T18:28:12.316Z,38.70
2018-04-10T18:30:45.909Z,38.70
2018-04-10T18:33:20.233Z,39.30
2018-04-10T18:35:54.550Z,39.20
2018-04-10T18:38:28.196Z,39.20
2018-04-10T18:41:01.844Z,39.40
2018-04-10T18:43:35.463Z,40.10
2018-04-10T18:46:09.071Z,42.60
2018-04-10T18:48:43.379Z,51.00
2018-04-10T18:51:17.107Z,51.00
2018-04-10T18:53:51.464Z,53.80
2018-04-10T18:56:25.012Z,53.80
2018-04-10T18:58:58.603Z,54.60
2018-04-10T19:01:32.082Z,55.10
2018-04-10T19:04:05.699Z,55.80
2018-04-10T19:06:39.303Z,56.60
2018-04-10T19:09:12.861Z,57.10
2018-04-10T19:11:46.382Z,57.70
2018-04-10T19:14:20.707Z,59.10
2018-04-10T19:16:54.432Z,59.00
2018-04-10T19:19:28.005Z,59.90
2018-04-10T19:22:02.325Z,64.30
2018-04-10T19:24:35.872Z,64.10
2018-04-10T19:27:10.247Z,68.90
2018-04-10T19:29:44.005Z,68.80
2018-04-10T19:32:18.691Z,75.60
2018-04-10T19:34:53.013Z,78.00
2018-04-10T19:37:26.729Z,77.90
2018-04-10T19:40:00.271Z,80.90
2018-04-10T19:42:33.864Z,84.30
2018-04-10T19:45:07.419Z,89.20
2018-04-10T19:47:41.090Z,90.40
2018-04-10T19:50:14.659Z,91.30
2018-04-10T19:52:49.024Z,92.80
2018-04-10T19:55:22.784Z,92.70
2018-04-10T19:57:56.318Z,93.90
2018-04-10T20:00:31.004Z,95.10
2018-04-10T20:03:04.948Z,95.10
2018-04-10T20:05:38.683Z,95.90
2018-04-10T20:08:12.262Z,96.00
2018-04-10T20:10:45.905Z,95.60
2018-04-10T20:13:19.471Z,95.40
2018-04-10T20:15:53.070Z,95.30
2018-04-10T20:18:26.597Z,95.20
2018-04-10T20:21:00.199Z,94.90
2018-04-10T20:23:33.707Z,94.80
2018-04-10T20:26:07.995Z,95.20
2018-04-10T20:28:41.512Z,95.10
2018-04-10T20:31:15.195Z,96.60
2018-04-10T20:33:48.766Z,96.50
2018-04-10T20:36:22.420Z,97.80
2018-04-10T20:38:56.076Z,97.30
2018-04-10T20:41:29.623Z,96.60
2018-04-10T20:44:03.203Z,95.70
2018-04-10T20:46:36.819Z,97.10
2018-04-10T20:49:10.385Z,98.20
2018-04-10T20:51:43.924Z,98.20
2018-04-10T20:54:17.665Z,98.00
2018-04-10T20:56:51.201Z,98.90
2018-04-10T20:59:24.805Z,98.50
2018-04-10T21:01:58.391Z,98.20
2018-04-10T21:04:31.937Z,99.00
2018-04-10T21:07:06.215Z,99.10
2018-04-10T21:09:39.742Z,99.10
2018-04-10T21:12:13.352Z,98.50
2018-04-10T21:14:47.274Z,98.10
2018-04-10T21:17:21.638Z,97.70
2018-04-10T21:19:55.349Z,97.70
2018-04-10T21:22:28.888Z,97.60
2018-04-10T21:25:03.202Z,97.10
2018-04-10T21:27:37.473Z,97.10
2018-04-10T21:30:11.176Z,97.10
2018-04-10T21:32:44.676Z,97.90
2018-04-10T21:35:18.173Z,98.00
2018-04-10T21:37:51.941Z,98.20
2018-04-10T21:40:25.608Z,98.20
2018-04-10T21:43:04.887Z,97.70
2018-04-10T21:45:38.736Z,97.50
2018-04-10T21:48:12.325Z,96.90
2018-04-10T21:50:46.160Z,96.00
2018-04-10T21:53:20.460Z,95.30
2018-04-10T21:55:54.153Z,95.20
2018-04-10T21:58:27.747Z,95.60
2018-04-10T22:01:02.070Z,97.10
2018-04-10T22:03:35.693Z,97.10
2018-04-10T22:06:09.255Z,97.20
2018-04-10T22:08:42.818Z,96.30
2018-04-10T22:11:16.347Z,95.40
2018-04-10T22:13:50.674Z,95.00
2018-04-10T22:16:24.178Z,95.00
2018-04-10T22:18:57.707Z,97.00
2018-04-10T22:21:31.388Z,96.80
2018-04-10T22:24:04.966Z,96.80
2018-04-10T22:26:38.523Z,96.20
2018-04-10T22:29:12.254Z,96.60
2018-04-10T22:31:45.976Z,95.90
2018-04-10T22:34:19.484Z,95.40
2018-04-10T22:36:53.777Z,94.70
2018-04-10T22:39:27.396Z,94.60
2018-04-10T22:42:01.122Z,94.30
2018-04-10T22:44:34.718Z,94.50
2018-04-10T22:47:08.183Z,94.50
2018-04-10T22:49:41.892Z,94.80
2018-04-10T22:52:15.401Z,95.00
2018-04-10T22:54:48.955Z,94.70
2018-04-10T22:57:22.504Z,94.50
2018-04-10T22:59:56.045Z,94.90
2018-04-10T23:02:29.565Z,95.70
2018-04-10T23:05:03.211Z,95.90
2018-04-10T23:07:36.771Z,96.30
2018-04-10T23:10:10.337Z,96.50
2018-04-10T23:12:43.858Z,96.50
2018-04-10T23:15:17.469Z,96.90
2018-04-10T23:17:51.777Z,96.20
2018-04-10T23:20:25.549Z,96.20
2018-04-10T23:22:59.109Z,96.40
2018-04-10T23:25:32.723Z,96.50
2018-04-10T23:28:06.248Z,97.10
2018-04-10T23:30:39.843Z,97.30
2018-04-10T23:33:13.511Z,97.30
2018-04-10T23:35:47.956Z,97.00
2018-04-10T23:38:21.563Z,99.60
2018-04-10T23:40:55.183Z,99.50
2018-04-10T23:43:28.894Z,99.10
2018-04-10T23:46:03.193Z,98.60
2018-04-10T23:48:36.920Z,98.60
2018-04-10T23:51:11.216Z,98.80
2018-04-10T23:53:44.743Z,98.70
2018-04-10T23:56:18.305Z,98.90
2018-04-10T23:58:52.588Z,98.60
